Time;durP1;ratioP1;P1;durP2;ratioP2;P2;SDS_P1;SDS_P2;PMS_P1;PMS_P2;Temp;Humidity;BMP_temperature;BMP_pressure;BME280_temperature;BME280_humidity;BME280_pressure;Samples;Min_cycle;Max_cycle;Signal;HPM_P1;HPM_P2
2022/09/06 00:00:57;;;;;;;4.33;1.55;;;;;;;11.71;55.11;101366.95;1745607;80;21046;-60
2022/09/06 00:03:23;;;;;;;5.00;2.15;;;;;;;11.70;54.72;101359.14;1763157;80;21155;-59
2022/09/06 00:05:50;;;;;;;4.10;1.50;;;;;;;11.68;54.92;101357.09;1749335;80;21021;-60
2022/09/06 00:08:17;;;;;;;3.90;1.40;;;;;;;11.65;55.23;101355.98;1752431;80;21104;-59
2022/09/06 00:10:45;;;;;;;4.42;1.85;;;;;;;11.64;55.51;101353.00;1749792;80;21058;-60
2022/09/06 00:13:13;;;;;;;6.67;1.77;;;;;;;11.61;55.58;101356.67;1742987;80;21057;-60
2022/09/06 00:15:40;;;;;;;4.20;1.50;;;;;;;11.59;55.68;101360.38;1745759;80;21129;-59
2022/09/06 00:18:06;;;;;;;5.67;2.05;;;;;;;11.56;55.57;101367.17;1748997;80;21120;-60
2022/09/06 00:20:33;;;;;;;6.62;2.02;;;;;;;11.52;55.94;101363.91;1760068;78;21109;-60
2022/09/06 00:23:04;;;;;;;5.97;1.80;;;;;;;11.50;56.23;101364.50;1783574;78;21578;-60
2022/09/06 00:25:31;;;;;;;6.40;2.00;;;;;;;11.47;56.29;101364.22;1780630;78;21123;-60
2022/09/06 00:28:02;;;;;;;4.03;1.50;;;;;;;11.45;56.07;101366.61;1774730;78;21121;-60
2022/09/06 00:30:30;;;;;;;4.45;1.87;;;;;;;11.43;55.85;101365.39;1779155;78;21091;-60
2022/09/06 00:32:56;;;;;;;5.72;1.70;;;;;;;11.40;56.18;101366.91;1783704;78;20981;-60
2022/09/06 00:35:23;;;;;;;5.40;1.90;;;;;;;11.38;56.22;101364.86;1781127;78;21076;-60
2022/09/06 00:37:53;;;;;;;4.97;1.90;;;;;;;11.34;56.33;101366.83;1780712;78;21049;-59
2022/09/06 00:40:19;;;;;;;5.08;1.65;;;;;;;11.33;56.26;101368.25;1779262;78;21953;-60
2022/09/06 00:42:46;;;;;;;4.45;1.67;;;;;;;11.30;56.17;101371.95;1767517;78;21040;-59
2022/09/06 00:45:13;;;;;;;3.65;1.50;;;;;;;11.26;56.47;101371.80;1782352;78;21812;-59
2022/09/06 00:47:41;;;;;;;4.75;1.52;;;;;;;11.23;56.68;101370.69;1776381;78;21062;-60
2022/09/06 00:50:09;;;;;;;5.83;1.60;;;;;;;11.21;56.92;101380.94;1787302;79;21089;-59
2022/09/06 00:52:36;;;;;;;7.20;1.65;;;;;;;11.19;57.02;101375.77;1783846;78;21870;-60
2022/09/06 00:55:03;;;;;;;4.85;1.52;;;;;;;11.16;56.99;101369.39;1787792;78;21400;-60
2022/09/06 00:57:31;;;;;;;3.95;1.40;;;;;;;11.17;57.29;101373.72;1779545;78;21049;-60
2022/09/06 00:59:57;;;;;;;4.17;1.42;;;;;;;11.23;57.14;101373.32;1784844;78;20986;-59
2022/09/06 01:02:24;;;;;;;4.25;1.50;;;;;;;11.27;56.65;101370.84;1777466;78;21065;-59
2022/09/06 01:04:51;;;;;;;4.37;1.50;;;;;;;11.28;56.69;101369.91;1776387;78;21227;-59
2022/09/06 01:07:57;;;;;;;7.05;1.70;;;;;;;11.30;56.75;101368.00;1782975;79;21024;-60
2022/09/06 01:10:44;;;;;;;4.85;1.52;;;;;;;11.28;56.62;101367.27;1783920;78;21463;-61
2022/09/06 01:13:30;;;;;;;4.08;1.25;;;;;;;11.26;56.87;101372.25;1781083;78;21470;-61
2022/09/06 01:16:30;;;;;;;4.72;1.80;;;;;;;11.23;56.96;101371.14;1786684;78;21080;-61
2022/09/06 01:19:11;;;;;;;3.40;1.35;;;;;;;11.18;56.94;101373.23;1782254;78;22169;-60
2022/09/06 01:22:15;;;;;;;5.15;1.75;;;;;;;11.13;57.34;101366.98;1780618;78;22078;-61
2022/09/06 01:24:56;;;;;;;3.98;1.40;;;;;;;11.09;57.08;101368.95;1779850;78;21013;-61
2022/09/06 01:27:52;;;;;;;4.53;1.55;;;;;;;11.03;56.86;101369.83;1779738;78;21367;-61
2022/09/06 01:30:19;;;;;;;3.70;1.20;;;;;;;10.96;56.86;101368.94;1775858;78;21041;-61
2022/09/06 01:33:08;;;;;;;3.58;1.30;;;;;;;10.90;56.82;101374.59;1737297;80;21960;-61
2022/09/06 01:35:42;;;;;;;3.80;1.40;;;;;;;10.88;57.16;101371.71;1770856;78;21023;-61
2022/09/06 01:38:09;;;;;;;4.85;1.50;;;;;;;10.85;57.50;101371.91;1780566;78;21677;-61
2022/09/06 01:40:35;;;;;;;3.58;1.20;;;;;;;10.86;57.59;101371.81;1773504;78;21539;-61
2022/09/06 01:43:04;;;;;;;5.47;1.20;;;;;;;10.93;57.52;101371.77;1772392;78;22260;-61
2022/09/06 01:45:55;;;;;;;4.58;1.37;;;;;;;10.99;56.87;101373.14;1770944;78;21143;-60
2022/09/06 01:48:33;;;;;;;3.95;1.45;;;;;;;11.01;57.05;101379.18;1778043;78;21014;-60
2022/09/06 01:51:26;;;;;;;3.87;1.35;;;;;;;11.01;57.51;101383.58;1784121;78;21026;-60
2022/09/06 01:54:26;;;;;;;4.60;1.62;;;;;;;10.96;57.92;101387.38;1749217;80;21061;-61
2022/09/06 01:57:13;;;;;;;5.05;1.55;;;;;;;10.87;58.25;101387.13;1753723;79;22276;-60
2022/09/06 02:00:05;;;;;;;6.08;1.60;;;;;;;10.79;58.55;101387.61;1756588;79;21138;-60
2022/09/06 02:03:29;;;;;;;5.60;1.90;;;;;;;10.74;58.90;101389.70;1755690;79;21046;-60
2022/09/06 02:06:01;;;;;;;4.60;1.85;;;;;;;10.71;59.20;101389.92;1784037;78;21020;-60
2022/09/06 02:08:36;;;;;;;6.70;1.85;;;;;;;10.65;59.48;101388.99;1762859;79;21055;-60
2022/09/06 02:11:05;;;;;;;5.92;2.17;;;;;;;10.65;59.48;101395.57;1761661;79;21098;-59
2022/09/06 02:13:39;;;;;;;8.15;2.60;;;;;;;10.68;59.43;101392.27;1764458;79;21709;-59
2022/09/06 02:16:07;;;;;;;9.23;2.67;;;;;;;10.73;59.42;101389.34;1761437;79;21448;-60
2022/09/06 02:18:43;;;;;;;8.83;2.47;;;;;;;10.76;59.39;101392.62;1764447;79;21015;-60
2022/09/06 02:21:12;;;;;;;7.05;2.60;;;;;;;10.75;59.41;101390.92;1762351;79;21099;-60
2022/09/06 02:23:39;;;;;;;10.48;2.72;;;;;;;10.71;59.34;101396.50;1760372;79;21091;-60
2022/09/06 02:26:12;;;;;;;10.38;2.90;;;;;;;10.64;59.55;101398.69;1757439;79;21149;-59
2022/09/06 02:28:38;;;;;;;8.53;2.90;;;;;;;10.54;59.79;101406.31;1728924;79;22015;-60
2022/09/06 02:31:34;;;;;;;9.48;3.25;;;;;;;10.50;59.99;101411.86;1755864;79;21050;-59
2022/09/06 02:34:02;;;;;;;8.30;3.55;;;;;;;10.40;60.04;101410.28;1691566;83;21636;-60
2022/09/06 02:36:30;;;;;;;8.53;2.87;;;;;;;10.30;60.33;101415.23;1706195;82;21115;-59
2022/09/06 02:38:59;;;;;;;7.03;3.17;;;;;;;10.19;60.58;101410.66;1718734;81;21144;-59
2022/09/06 02:41:26;;;;;;;9.00;3.10;;;;;;;10.12;60.73;101408.48;1718561;81;21055;-59
2022/09/06 02:43:52;;;;;;;6.72;2.80;;;;;;;10.09;60.84;101412.64;1702999;82;21107;-60
2022/09/06 02:46:19;;;;;;;10.43;2.70;;;;;;;10.06;60.87;101413.66;1706763;82;21649;-60
2022/09/06 02:48:46;;;;;;;9.83;2.60;;;;;;;10.10;60.67;101409.89;1704251;82;21174;-60
2022/09/06 02:51:12;;;;;;;9.45;3.22;;;;;;;10.13;60.57;101409.70;1710515;82;21236;-59
2022/09/06 02:53:39;;;;;;;10.58;3.35;;;;;;;10.11;60.66;101408.12;1708803;82;21012;-59
2022/09/06 02:56:05;;;;;;;10.10;3.35;;;;;;;10.08;60.70;101410.94;1705148;82;21059;-60
2022/09/06 02:58:32;;;;;;;8.80;3.52;;;;;;;10.07;60.77;101408.79;1701613;82;21083;-59
2022/09/06 03:00:58;;;;;;;9.38;3.52;;;;;;;10.03;60.80;101417.31;1705256;82;21128;-59
2022/09/06 03:03:26;;;;;;;11.97;3.72;;;;;;;9.96;60.84;101408.12;1709023;82;22035;-60
2022/09/06 03:05:53;;;;;;;8.45;3.42;;;;;;;9.92;60.88;101413.65;1708424;82;21066;-59
2022/09/06 03:08:21;;;;;;;8.03;3.10;;;;;;;9.85;60.91;101411.41;1702297;82;21593;-59
2022/09/06 03:10:52;;;;;;;8.50;3.60;;;;;;;9.81;61.06;101411.20;1707806;82;21053;-59
2022/09/06 03:13:18;;;;;;;6.72;3.30;;;;;;;9.79;61.17;101407.83;1709863;82;21080;-60
2022/09/06 03:15:52;;;;;;;6.78;3.22;;;;;;;9.74;61.32;101407.27;1707737;82;22228;-60
2022/09/06 03:18:21;;;;;;;11.65;4.08;;;;;;;9.76;61.39;101409.80;1708581;82;20991;-60
2022/09/06 03:20:51;;;;;;;6.97;3.10;;;;;;;9.76;61.39;101409.80;1708830;82;20988;-60
2022/09/06 03:23:19;;;;;;;7.35;3.00;;;;;;;9.80;61.47;101409.98;1709298;82;21095;-60
2022/09/06 03:25:45;;;;;;;6.58;2.90;;;;;;;9.83;61.34;101413.30;1708223;82;21592;-60
2022/09/06 03:28:12;;;;;;;7.30;3.10;;;;;;;9.81;61.25;101416.46;1723973;81;21091;-59
2022/09/06 03:30:39;;;;;;;8.20;3.05;;;;;;;9.77;61.04;101420.23;1708383;82;22159;-59
2022/09/06 03:33:06;;;;;;;6.85;3.52;;;;;;;9.71;61.04;101419.75;1714264;81;21052;-60
2022/09/06 03:35:32;;;;;;;8.83;3.52;;;;;;;9.67;61.03;101425.18;1719296;81;21119;-59
2022/09/06 03:37:59;;;;;;;6.92;3.47;;;;;;;9.61;61.00;101428.16;1715371;81;21586;-60
2022/09/06 03:40:25;;;;;;;6.83;3.75;;;;;;;9.55;61.02;101428.55;1718994;81;21576;-60
2022/09/06 03:42:52;;;;;;;6.08;3.65;;;;;;;9.49;61.16;101423.16;1714551;81;21084;-59
2022/09/06 03:45:18;;;;;;;6.40;3.22;;;;;;;9.47;61.25;101434.23;1717261;81;21047;-59
2022/09/06 03:47:46;;;;;;;6.22;3.33;;;;;;;9.45;61.33;101432.66;1717910;81;21122;-60
2022/09/06 03:50:12;;;;;;;6.58;3.17;;;;;;;9.43;61.43;101437.13;1724247;81;21146;-59
2022/09/06 03:52:39;;;;;;;6.83;3.00;;;;;;;9.40;61.56;101430.77;1721830;81;21063;-59
2022/09/06 03:55:07;;;;;;;5.62;2.98;;;;;;;9.41;61.55;101442.47;1727173;81;21506;-59
2022/09/06 03:57:34;;;;;;;6.47;2.85;;;;;;;9.45;61.50;101447.94;1713721;81;21057;-59
2022/09/06 04:00:00;;;;;;;6.15;2.72;;;;;;;9.51;61.47;101448.03;1705320;82;21400;-60
2022/09/06 04:02:27;;;;;;;5.92;2.20;;;;;;;9.54;61.46;101455.75;1705703;82;21509;-61
2022/09/06 04:04:54;;;;;;;5.30;2.65;;;;;;;9.57;61.57;101459.52;1704616;82;21217;-61
2022/09/06 04:07:24;;;;;;;6.05;2.85;;;;;;;9.65;61.28;101453.82;1684010;83;21096;-60
2022/09/06 04:09:50;;;;;;;12.53;2.95;;;;;;;9.69;61.09;101457.95;1702246;82;21560;-60
2022/09/06 04:12:17;;;;;;;6.97;2.77;;;;;;;9.76;60.41;101462.37;1722997;81;21877;-60
2022/09/06 04:14:44;;;;;;;6.60;2.45;;;;;;;9.81;59.89;101455.89;1712179;82;21696;-60
2022/09/06 04:17:11;;;;;;;6.05;2.50;;;;;;;9.87;59.65;101459.95;1708896;81;21554;-61
2022/09/06 04:19:38;;;;;;;6.05;2.85;;;;;;;9.88;59.47;101461.63;1719017;81;21600;-60
2022/09/06 04:22:04;;;;;;;7.67;2.77;;;;;;;9.89;59.47;101462.02;1718478;81;21131;-60
2022/09/06 04:24:31;;;;;;;7.72;3.00;;;;;;;9.89;59.47;101466.44;1723472;81;21025;-60
2022/09/06 04:26:58;;;;;;;5.20;2.35;;;;;;;9.85;59.51;101465.30;1687907;83;21104;-60
2022/09/06 04:29:25;;;;;;;6.28;2.52;;;;;;;9.81;59.70;101463.77;1711359;82;21152;-60
2022/09/06 04:31:52;;;;;;;5.92;2.83;;;;;;;9.79;59.92;101468.28;1707844;82;21061;-60
2022/09/06 04:34:18;;;;;;;6.97;2.62;;;;;;;9.87;59.97;101475.73;1706503;82;21053;-60
2022/09/06 04:36:45;;;;;;;5.35;2.45;;;;;;;10.01;59.68;101470.95;1710839;82;21036;-58
2022/09/06 04:39:12;;;;;;;7.05;3.15;;;;;;;10.12;59.41;101466.34;1704469;82;21148;-58
2022/09/06 04:41:39;;;;;;;5.58;2.47;;;;;;;10.19;59.43;101469.84;1710620;82;21842;-60
2022/09/06 04:44:05;;;;;;;6.03;2.50;;;;;;;10.25;59.41;101473.03;1705282;82;21052;-58
2022/09/06 04:46:33;;;;;;;5.40;2.33;;;;;;;10.24;59.58;101477.45;1706790;82;21123;-59
2022/09/06 04:49:00;;;;;;;6.00;3.10;;;;;;;10.24;59.70;101473.50;1717827;81;21095;-58
2022/09/06 04:51:27;;;;;;;4.85;2.40;;;;;;;10.28;59.67;101476.79;1717606;81;21059;-59
2022/09/06 04:53:53;;;;;;;4.83;2.58;;;;;;;10.26;59.86;101474.73;1707180;82;21233;-60
2022/09/06 04:56:22;;;;;;;6.53;2.87;;;;;;;10.22;60.03;101481.48;1714189;81;21053;-59
2022/09/06 04:58:49;;;;;;;5.70;2.40;;;;;;;10.20;60.34;101471.98;1704328;82;21155;-58
2022/09/06 05:01:15;;;;;;;6.45;2.67;;;;;;;10.30;60.33;101477.53;1687096;83;21098;-59
2022/09/06 05:03:42;;;;;;;5.40;2.25;;;;;;;10.46;60.04;101473.53;1689188;83;20989;-59
2022/09/06 05:06:12;;;;;;;6.67;2.70;;;;;;;10.60;59.90;101475.66;1713626;82;21811;-58
2022/09/06 05:08:40;;;;;;;6.67;2.77;;;;;;;10.71;59.72;101475.00;1705607;82;21031;-59
2022/09/06 05:11:07;;;;;;;7.17;2.60;;;;;;;10.81;59.56;101472.62;1704456;82;21059;-59
2022/09/06 05:13:34;;;;;;;6.62;3.22;;;;;;;10.88;59.52;101473.92;1703772;82;21065;-59
2022/09/06 05:16:02;;;;;;;4.70;2.17;;;;;;;10.92;59.47;101478.52;1709809;82;21112;-59
2022/09/06 05:18:29;;;;;;;9.55;2.30;;;;;;;10.94;59.36;101474.86;1708637;82;21196;-59
2022/09/06 05:20:56;;;;;;;6.80;2.67;;;;;;;11.00;59.51;101472.28;1705318;82;21043;-59
2022/09/06 05:23:22;;;;;;;7.45;2.70;;;;;;;11.06;59.58;101474.53;1700665;82;21073;-59
2022/09/06 05:25:49;;;;;;;4.45;1.90;;;;;;;11.07;59.59;101470.10;1711883;82;21107;-59
2022/09/06 05:28:16;;;;;;;5.05;2.00;;;;;;;11.14;59.86;101473.53;1702861;82;21069;-59
2022/09/06 05:30:42;;;;;;;5.75;2.37;;;;;;;11.29;59.08;101470.38;1708038;82;21147;-59
2022/09/06 05:33:10;;;;;;;5.53;2.42;;;;;;;11.38;58.88;101470.27;1707310;82;21053;-59
2022/09/06 05:35:37;;;;;;;5.05;2.17;;;;;;;11.45;58.68;101473.34;1704071;82;21033;-59
2022/09/06 05:38:04;;;;;;;6.40;3.08;;;;;;;11.52;58.55;101470.66;1708092;82;21071;-59
2022/09/06 05:40:30;;;;;;;6.80;2.92;;;;;;;11.55;59.04;101469.59;1704099;82;21823;-59
2022/09/06 05:42:57;;;;;;;5.25;2.45;;;;;;;11.67;58.95;101472.27;1701521;82;21542;-61
2022/09/06 06:18:06;;;;;;;6.40;2.75;;;;;;;12.98;54.77;101464.47;1783738;78;23137;-64
2022/09/06 06:20:32;;;;;;;9.68;2.95;;;;;;;13.07;54.49;101466.91;1745322;80;21623;-62
2022/09/06 06:22:59;;;;;;;6.30;2.95;;;;;;;13.04;54.25;101471.09;1738535;80;21650;-61
2022/09/06 06:25:25;;;;;;;5.28;2.25;;;;;;;13.00;53.85;101474.44;1748692;80;21551;-60
2022/09/06 06:27:52;;;;;;;4.95;2.67;;;;;;;12.97;54.00;101472.51;1746025;80;21595;-62
2022/09/06 06:30:18;;;;;;;6.92;2.70;;;;;;;12.94;54.36;101471.41;1687009;83;21105;-61
2022/09/06 06:32:45;;;;;;;9.98;3.30;;;;;;;12.98;54.46;101471.56;1712841;82;21049;-62
2022/09/06 06:35:11;;;;;;;6.28;2.80;;;;;;;13.04;54.24;101474.23;1701463;82;22310;-61
2022/09/06 06:37:41;;;;;;;8.13;3.30;;;;;;;13.10;54.66;101474.63;1705629;82;21125;-62
2022/09/06 06:40:09;;;;;;;6.70;3.55;;;;;;;13.18;53.89;101475.39;1702928;82;21517;-62
2022/09/06 06:42:35;;;;;;;7.42;3.67;;;;;;;13.19;52.65;101477.06;1705477;83;21117;-62
2022/09/06 06:45:02;;;;;;;7.92;3.70;;;;;;;13.19;53.06;101482.34;1706946;82;21083;-62
2022/09/06 06:47:29;;;;;;;6.90;3.50;;;;;;;13.16;52.99;101482.56;1703557;82;21477;-62
2022/09/06 06:49:56;;;;;;;6.00;3.67;;;;;;;13.19;53.37;101482.34;1704413;83;21630;-62
2022/09/06 06:52:23;;;;;;;6.97;3.42;;;;;;;13.21;53.47;101481.75;1697484;82;21016;-62
2022/09/06 06:54:50;;;;;;;5.65;2.20;;;;;;;13.25;51.91;101481.07;1693479;82;21035;-62
2022/09/06 06:57:16;;;;;;;4.72;2.08;;;;;;;13.25;49.79;101479.27;1702847;82;21117;-62
2022/09/06 06:59:43;;;;;;;4.97;2.17;;;;;;;13.26;49.44;101479.61;1711421;83;21265;-62
2022/09/06 07:02:10;;;;;;;5.83;1.90;;;;;;;13.30;49.93;101483.73;1709679;82;21080;-62
2022/09/06 07:04:36;;;;;;;4.90;2.02;;;;;;;13.37;48.85;101482.34;1706606;82;21118;-62
2022/09/06 07:07:04;;;;;;;4.42;1.65;;;;;;;13.43;47.62;101480.19;1708308;82;21651;-62
2022/09/06 07:09:30;;;;;;;4.80;1.62;;;;;;;13.48;47.47;101479.36;1712179;82;22451;-62
2022/09/06 07:11:57;;;;;;;5.10;1.60;;;;;;;13.54;47.49;101478.92;1705727;82;22107;-62
2022/09/06 07:14:23;;;;;;;4.62;1.40;;;;;;;13.61;47.46;101477.98;1717506;82;21045;-63
2022/09/06 07:16:56;;;;;;;2.70;0.80;;;;;;;13.66;45.93;101474.50;1694872;83;21068;-62
2022/09/06 07:19:19;;;;;;;3.87;1.07;;;;;;;13.73;44.39;101479.22;1698711;82;21391;-63
2022/09/06 07:21:46;;;;;;;6.60;1.60;;;;;;;13.80;44.73;101478.73;1736008;81;21092;-63
2022/09/06 07:24:13;;;;;;;3.55;0.80;;;;;;;13.85;44.92;101477.45;1735865;81;21127;-63
2022/09/06 07:26:40;;;;;;;1.75;0.50;;;;;;;13.92;44.47;101473.85;1739555;80;21016;-63
2022/09/06 07:29:07;;;;;;;2.47;0.78;;;;;;;13.99;43.25;101479.52;1699231;83;21097;-63
2022/09/06 07:31:36;;;;;;;2.33;0.82;;;;;;;14.04;43.28;101476.03;1692203;84;21454;-63
2022/09/06 07:34:04;;;;;;;2.40;0.78;;;;;;;14.12;42.94;101478.44;1700515;83;21097;-64
2022/09/06 07:36:31;;;;;;;3.50;0.98;;;;;;;14.19;43.72;101477.48;1691900;83;21165;-63
2022/09/06 07:38:58;;;;;;;2.98;0.90;;;;;;;14.29;42.54;101478.44;1697322;82;21072;-63
2022/09/06 07:41:25;;;;;;;5.95;1.55;;;;;;;14.34;41.55;101470.14;1703603;83;21055;-63
2022/09/06 07:43:53;;;;;;;3.65;1.12;;;;;;;14.35;41.84;101472.30;1702959;82;21028;-63
2022/09/06 07:46:20;;;;;;;3.17;1.10;;;;;;;14.35;41.24;101470.48;1705839;83;21322;-63
2022/09/06 07:48:48;;;;;;;4.97;1.15;;;;;;;14.38;40.75;101472.06;1702870;83;21321;-63
2022/09/06 07:51:19;;;;;;;2.90;0.88;;;;;;;14.40;41.20;101474.11;1699000;82;21039;-63
2022/09/06 07:53:54;;;;;;;2.67;0.98;;;;;;;14.43;41.09;101472.55;1698448;83;21126;-63
2022/09/06 07:56:22;;;;;;;3.42;1.10;;;;;;;14.42;40.63;101468.20;1702617;83;21067;-63
2022/09/06 07:58:49;;;;;;;3.20;0.85;;;;;;;14.40;41.02;101466.99;1698418;82;21791;-63
2022/09/06 08:01:35;;;;;;;3.55;0.95;;;;;;;14.41;40.89;101464.72;1703829;83;21079;-63
2022/09/06 08:04:07;;;;;;;2.47;1.00;;;;;;;14.45;40.95;101471.44;1695179;83;26079;-63
2022/09/06 08:06:37;;;;;;;2.40;0.85;;;;;;;14.52;40.66;101466.50;1695687;83;21055;-63
2022/09/06 08:09:05;;;;;;;4.95;1.10;;;;;;;14.60;40.11;101474.71;1703593;83;21034;-63
2022/09/06 08:11:32;;;;;;;4.72;0.98;;;;;;;14.64;40.09;101468.23;1705272;83;21010;-63
2022/09/06 08:14:00;;;;;;;3.70;0.88;;;;;;;14.68;40.33;101468.81;1699256;82;21532;-63
2022/09/06 08:16:28;;;;;;;5.75;0.85;;;;;;;14.66;40.08;101467.61;1704684;83;21138;-64
2022/09/06 08:18:57;;;;;;;2.67;0.60;;;;;;;14.66;40.46;101457.51;1700459;82;21063;-63
2022/09/06 08:21:30;;;;;;;4.08;0.82;;;;;;;14.75;40.02;101458.57;1706431;82;22094;-63
2022/09/06 08:23:58;;;;;;;2.90;0.82;;;;;;;14.80;39.81;101459.87;1702412;83;21048;-63
2022/09/06 08:26:26;;;;;;;3.05;0.75;;;;;;;14.87;40.68;101454.91;1706098;82;21171;-63
2022/09/06 08:28:59;;;;;;;3.37;0.60;;;;;;;14.91;40.37;101464.31;1703286;83;21608;-63
2022/09/06 08:31:27;;;;;;;4.05;0.93;;;;;;;14.87;39.92;101458.89;1705910;82;22326;-63
2022/09/06 08:33:54;;;;;;;2.95;0.82;;;;;;;14.81;39.96;101456.73;1677467;83;21058;-63
2022/09/06 08:36:21;;;;;;;3.10;0.82;;;;;;;14.71;41.04;101459.77;1742884;80;21047;-64
2022/09/06 08:38:48;;;;;;;5.15;1.20;;;;;;;14.65;40.54;101460.62;1734846;81;21232;-63
2022/09/06 08:41:50;;;;;;;4.10;1.20;;;;;;;14.61;41.19;101463.66;1743219;81;21035;-63
2022/09/06 08:44:41;;;;;;;6.10;1.75;;;;;;;14.56;40.44;101455.17;1744989;81;21034;-63
2022/09/06 08:47:12;;;;;;;4.35;1.62;;;;;;;14.53;41.11;101452.30;1702678;83;21134;-63
2022/09/06 08:49:48;;;;;;;8.05;3.50;;;;;;;14.49;41.23;101446.87;1703713;83;21511;-63
2022/09/06 08:52:57;;;;;;;8.33;4.00;;;;;;;14.48;41.73;101445.22;1696244;83;21098;-61
2022/09/06 08:55:32;;;;;;;8.28;4.08;;;;;;;14.46;41.15;101444.01;1707963;83;21058;-62
2022/09/06 08:58:13;;;;;;;5.47;2.83;;;;;;;14.48;41.52;101439.42;1703296;82;21160;-62
2022/09/06 09:00:41;;;;;;;6.00;1.52;;;;;;;14.57;41.71;101435.19;1703794;83;21109;-63
2022/09/06 09:03:17;;;;;;;3.83;1.50;;;;;;;14.66;39.66;101431.84;1695109;82;21078;-61
2022/09/06 09:05:45;;;;;;;3.12;1.22;;;;;;;14.71;39.75;101435.92;1704867;83;21160;-63
2022/09/06 09:08:26;;;;;;;3.33;1.15;;;;;;;14.68;40.04;101433.89;1668797;84;21094;-61
2022/09/06 09:11:09;;;;;;;4.85;1.62;;;;;;;14.66;40.11;101427.88;1700922;83;21154;-61
2022/09/06 09:13:58;;;;;;;4.60;1.50;;;;;;;14.69;39.29;101428.09;1674298;83;21090;-62
2022/09/06 09:16:24;;;;;;;4.55;1.35;;;;;;;14.76;38.56;101422.69;1706992;83;21138;-62
2022/09/06 09:18:58;;;;;;;4.30;1.30;;;;;;;14.90;38.96;101418.89;1695080;83;21786;-62
2022/09/06 09:21:28;;;;;;;4.30;1.20;;;;;;;15.04;38.99;101417.75;1691298;83;21053;-62
2022/09/06 09:23:57;;;;;;;4.12;1.25;;;;;;;15.18;38.74;101413.95;1693745;83;21107;-61
2022/09/06 09:26:26;;;;;;;3.85;1.50;;;;;;;15.26;37.41;101418.62;1695291;83;21073;-61
2022/09/06 09:29:11;;;;;;;4.55;1.57;;;;;;;15.25;38.33;101417.80;1697195;84;20997;-62
2022/09/06 09:31:44;;;;;;;4.42;1.92;;;;;;;15.33;38.72;101413.16;1698618;83;21321;-62
2022/09/06 09:34:34;;;;;;;5.35;2.20;;;;;;;15.36;38.49;101407.61;1693042;83;21032;-62
2022/09/06 09:37:23;;;;;;;4.80;1.52;;;;;;;15.37;37.16;101415.44;1690633;83;21399;-62
2022/09/06 09:39:52;;;;;;;5.08;2.10;;;;;;;15.32;37.23;101410.17;1695094;83;21072;-61
2022/09/06 09:42:33;;;;;;;5.12;2.22;;;;;;;15.26;38.39;101408.02;1696855;83;21087;-62
2022/09/06 09:45:21;;;;;;;5.37;2.60;;;;;;;15.23;37.83;101418.38;1687362;83;21174;-62
2022/09/06 09:47:48;;;;;;;4.83;2.33;;;;;;;15.22;38.89;101416.23;1686440;83;21064;-61
2022/09/06 09:50:30;;;;;;;6.28;2.92;;;;;;;15.27;38.98;101418.50;1705541;82;21164;-62
2022/09/06 09:53:08;;;;;;;6.78;3.25;;;;;;;15.27;38.57;101415.85;1707774;82;21010;-61
2022/09/06 09:55:34;;;;;;;7.03;2.98;;;;;;;15.25;38.71;101419.13;1701776;82;21550;-61
2022/09/06 09:58:01;;;;;;;6.67;2.90;;;;;;;15.25;39.28;101416.47;1713092;82;22205;-62
2022/09/06 10:00:41;;;;;;;7.03;2.92;;;;;;;15.26;38.83;101419.95;1712028;82;21102;-61
2022/09/06 10:03:21;;;;;;;6.17;2.92;;;;;;;15.23;38.76;101419.71;1715319;82;21017;-62
2022/09/06 10:05:59;;;;;;;5.50;2.52;;;;;;;15.21;39.80;101422.98;1713044;82;21012;-62
2022/09/06 10:08:26;;;;;;;6.00;2.60;;;;;;;15.20;39.66;101414.69;1715338;82;21359;-61
2022/09/06 10:10:53;;;;;;;7.25;3.15;;;;;;;15.16;38.82;101416.76;1710849;82;21078;-61
2022/09/06 10:13:25;;;;;;;7.62;2.80;;;;;;;15.15;39.39;101412.41;1711998;82;20998;-62
2022/09/06 10:15:52;;;;;;;5.60;3.15;;;;;;;15.20;39.97;101418.67;1717035;82;21119;-62
2022/09/06 10:18:36;;;;;;;5.72;3.37;;;;;;;15.20;38.95;101418.17;1714717;82;21021;-61
2022/09/06 10:21:12;;;;;;;7.83;3.72;;;;;;;15.23;39.59;101417.06;1710562;82;21140;-62
2022/09/06 10:24:26;;;;;;;5.70;2.70;;;;;;;15.27;39.59;101416.34;1711796;82;21640;-62
2022/09/06 10:26:55;;;;;;;8.05;3.30;;;;;;;15.30;39.71;101412.95;1730225;81;21048;-61
2022/09/06 10:29:54;;;;;;;6.62;2.77;;;;;;;15.35;38.86;101408.59;1724865;81;21127;-61
2022/09/06 10:32:53;;;;;;;7.00;3.00;;;;;;;15.41;38.83;101399.61;1726464;81;21046;-61
2022/09/06 10:35:37;;;;;;;5.72;3.05;;;;;;;15.51;39.25;101403.65;1711940;82;21943;-61
2022/09/06 10:38:34;;;;;;;7.22;3.40;;;;;;;15.60;38.09;101401.56;1711351;82;21985;-61
2022/09/06 10:41:40;;;;;;;5.72;2.67;;;;;;;15.62;37.32;101402.76;1685234;82;21051;-61
2022/09/06 10:44:27;;;;;;;6.10;3.02;;;;;;;15.59;38.10;101401.69;1669288;84;21120;-61
2022/09/06 10:47:10;;;;;;;7.25;3.37;;;;;;;15.56;38.97;101404.10;1644465;84;21160;-61
2022/09/06 10:49:50;;;;;;;8.53;3.87;;;;;;;15.63;40.14;101407.56;1726260;81;21116;-61
2022/09/06 10:52:33;;;;;;;10.38;4.78;;;;;;;15.71;39.44;101404.61;1736123;81;21306;-61
2022/09/06 10:55:04;;;;;;;8.25;4.80;;;;;;;15.79;38.54;101404.83;1723971;81;21045;-61
2022/09/06 10:57:38;;;;;;;7.47;4.42;;;;;;;15.83;38.96;101399.26;1726930;81;22013;-62
2022/09/06 11:00:11;;;;;;;9.38;5.00;;;;;;;15.89;38.68;101405.38;1712037;81;20963;-62
2022/09/06 11:03:19;;;;;;;7.62;4.65;;;;;;;15.97;38.17;101401.08;1725288;81;21421;-62
2022/09/06 11:05:52;;;;;;;10.43;5.78;;;;;;;16.03;38.82;101398.36;1726380;81;21381;-61
2022/09/06 11:08:29;;;;;;;10.03;4.72;;;;;;;16.13;38.14;101389.12;1726036;81;21030;-62
2022/09/06 11:10:55;;;;;;;8.40;5.15;;;;;;;16.15;38.20;101396.45;1726927;81;21686;-62
2022/09/06 11:13:26;;;;;;;9.80;4.70;;;;;;;16.21;38.80;101397.75;1725694;81;21542;-62
2022/09/06 11:16:04;;;;;;;7.50;4.35;;;;;;;16.21;38.74;101391.94;1724159;81;21073;-62
2022/09/06 11:18:46;;;;;;;11.85;4.80;;;;;;;16.23;38.50;101395.80;1725072;81;21602;-62
2022/09/06 11:21:44;;;;;;;8.58;4.30;;;;;;;16.23;37.69;101389.16;1725410;81;21557;-61
2022/09/06 11:24:14;;;;;;;7.62;4.72;;;;;;;16.22;37.35;101390.95;1723878;81;21178;-62
2022/09/06 11:27:08;;;;;;;7.80;4.42;;;;;;;16.25;37.85;101385.87;1727999;81;21084;-62
2022/09/06 11:29:34;;;;;;;10.25;4.70;;;;;;;16.35;38.46;101383.58;1669234;84;21812;-61
2022/09/06 11:32:03;;;;;;;7.75;4.83;;;;;;;16.55;38.48;101384.12;1663039;84;21786;-62
2022/09/06 11:34:34;;;;;;;10.72;5.12;;;;;;;16.62;38.49;101382.59;1694398;81;21076;-61
2022/09/06 11:37:06;;;;;;;8.33;5.40;;;;;;;16.68;36.67;101382.05;1702381;82;21042;-61
2022/09/06 11:39:37;;;;;;;10.20;6.83;;;;;;;16.72;36.41;101377.62;1722233;81;21120;-62
2022/09/06 11:42:26;;;;;;;13.45;6.60;;;;;;;16.77;37.87;101384.36;1712149;81;21034;-61
2022/09/06 11:45:07;;;;;;;10.13;6.58;;;;;;;16.78;36.41;101379.37;1724579;81;21259;-63
2022/09/06 11:47:40;;;;;;;13.03;8.90;;;;;;;16.81;36.76;101378.63;1667981;84;21639;-64
2022/09/06 11:50:26;;;;;;;13.95;9.28;;;;;;;16.91;37.99;101378.64;1704456;82;21058;-64
2022/09/06 11:53:01;;;;;;;21.07;10.00;;;;;;;17.03;37.07;101375.34;1711050;82;21034;-64
2022/09/06 11:55:42;;;;;;;17.85;10.80;;;;;;;17.08;36.76;101377.13;1710113;82;21823;-64
2022/09/06 11:58:20;;;;;;;16.85;10.88;;;;;;;17.13;37.56;101364.24;1713110;82;21163;-64
2022/09/06 12:01:06;;;;;;;16.37;11.93;;;;;;;17.21;37.19;101363.52;1712553;82;21055;-63
2022/09/06 12:03:54;;;;;;;20.17;13.95;;;;;;;17.20;37.64;101365.34;1671576;82;21109;-63
2022/09/06 12:06:27;;;;;;;17.95;13.85;;;;;;;17.18;36.92;101367.31;1712775;82;21686;-63
2022/09/06 12:08:54;;;;;;;20.10;14.03;;;;;;;17.09;37.33;101360.17;1712189;82;21041;-63
2022/09/06 12:11:43;;;;;;;23.70;16.23;;;;;;;16.94;36.56;101365.07;1733094;81;21145;-63
2022/09/06 12:14:30;;;;;;;22.77;16.45;;;;;;;16.78;37.00;101364.28;1731355;81;21145;-63
2022/09/06 12:17:05;;;;;;;23.47;18.17;;;;;;;16.57;37.54;101356.92;1736543;81;21517;-63
2022/09/06 12:19:55;;;;;;;24.45;17.10;;;;;;;16.44;38.16;101360.69;1733588;81;21053;-62
2022/09/06 12:22:39;;;;;;;28.95;21.20;;;;;;;16.38;38.92;101359.07;1718277;81;21052;-63